createdAt,value
2018-12-08T00:01:20.773Z,2.80
2018-12-08T00:03:48.567Z,2.80
2018-12-08T00:06:16.325Z,1.87
2018-12-08T00:08:43.951Z,2.90
2018-12-08T00:11:11.547Z,3.47
2018-12-08T00:13:39.104Z,2.90
2018-12-08T00:16:06.674Z,2.23
2018-12-08T00:18:34.225Z,2.30
2018-12-08T00:21:01.805Z,2.47
2018-12-08T00:23:29.408Z,2.90
2018-12-08T00:25:57.049Z,3.03
2018-12-08T00:28:24.618Z,2.60
2018-12-08T00:31:03.908Z,2.27
2018-12-08T00:33:31.738Z,3.53
2018-12-08T00:35:59.574Z,2.03
2018-12-08T00:38:27.118Z,2.23
2018-12-08T00:40:54.711Z,2.17
2018-12-08T00:43:22.434Z,3.07
2018-12-08T00:45:50.073Z,2.70
2018-12-08T00:48:17.698Z,1.80
2018-12-08T00:50:45.279Z,2.97
2018-12-08T00:53:12.814Z,4.10
2018-12-08T00:55:40.361Z,2.53
2018-12-08T00:58:08.121Z,2.93
2018-12-08T01:00:35.922Z,2.40
2018-12-08T01:03:03.714Z,2.77
2018-12-08T01:05:31.517Z,2.63
2018-12-08T01:07:59.146Z,2.87
2018-12-08T01:10:26.706Z,3.37
2018-12-08T01:12:54.256Z,3.90
2018-12-08T01:15:21.821Z,2.77
2018-12-08T01:17:49.503Z,2.70
2018-12-08T01:20:17.186Z,2.50
2018-12-08T01:22:44.764Z,3.53
2018-12-08T01:25:12.472Z,2.73
2018-12-08T01:27:41.034Z,2.60
2018-12-08T01:30:08.853Z,2.40
2018-12-08T01:32:36.638Z,2.90
2018-12-08T01:35:04.747Z,2.77
2018-12-08T01:37:32.333Z,2.73
2018-12-08T01:39:59.906Z,2.60
2018-12-08T01:42:27.453Z,2.57
2018-12-08T01:44:55.021Z,2.33
2018-12-08T01:47:22.582Z,2.57
2018-12-08T01:49:50.124Z,2.47
2018-12-08T01:52:17.641Z,2.37
2018-12-08T01:54:45.209Z,2.47
2018-12-08T01:57:12.729Z,2.17
2018-12-08T01:59:40.507Z,1.83
2018-12-08T02:02:08.285Z,2.30
2018-12-08T02:04:36.045Z,3.83
2018-12-08T02:07:03.848Z,2.60
2018-12-08T02:09:31.471Z,2.57
2018-12-08T02:11:59.048Z,2.00
2018-12-08T02:14:26.606Z,3.03
2018-12-08T02:16:54.314Z,3.53
2018-12-08T02:19:21.867Z,2.37
2018-12-08T02:21:49.402Z,2.33
2018-12-08T02:24:16.993Z,3.00
2018-12-08T02:26:44.571Z,3.63
2018-12-08T02:29:12.352Z,2.67
2018-12-08T02:31:40.181Z,2.20
2018-12-08T02:34:07.954Z,2.77
2018-12-08T02:36:35.776Z,2.77
2018-12-08T02:39:05.636Z,3.13
2018-12-08T02:41:33.547Z,2.70
2018-12-08T02:44:01.225Z,2.40
2018-12-08T02:46:28.868Z,2.40
2018-12-08T02:48:56.669Z,4.53
2018-12-08T02:51:24.217Z,3.10
2018-12-08T02:53:51.746Z,2.33
2018-12-08T02:56:19.320Z,2.57
2018-12-08T02:58:46.884Z,3.33
2018-12-08T03:01:14.408Z,4.23
2018-12-08T03:03:41.981Z,2.80
2018-12-08T03:06:09.720Z,2.50
2018-12-08T03:08:37.394Z,3.03
2018-12-08T03:11:05.105Z,2.77
2018-12-08T03:13:32.915Z,3.10
2018-12-08T03:16:00.492Z,2.80
2018-12-08T03:18:28.057Z,3.17
2018-12-08T03:20:55.600Z,3.30
2018-12-08T03:23:23.158Z,2.60
2018-12-08T03:25:50.738Z,2.40
2018-12-08T03:28:18.344Z,2.50
2018-12-08T03:30:46.106Z,3.57
2018-12-08T03:33:13.892Z,3.13
2018-12-08T03:35:41.614Z,2.93
2018-12-08T03:38:09.421Z,3.47
2018-12-08T03:40:36.953Z,3.47
2018-12-08T03:43:04.465Z,2.70
2018-12-08T03:45:32.019Z,3.33
2018-12-08T03:47:59.579Z,2.40
2018-12-08T03:50:27.115Z,3.23
2018-12-08T03:52:54.662Z,2.77
2018-12-08T03:55:22.235Z,2.53
2018-12-08T03:57:49.845Z,2.30
2018-12-08T04:00:17.835Z,2.83
2018-12-08T04:02:45.531Z,2.80
2018-12-08T04:05:13.426Z,2.93
2018-12-08T04:07:41.032Z,3.03
2018-12-08T04:10:08.597Z,3.20
2018-12-08T04:12:36.129Z,4.30
2018-12-08T04:15:03.890Z,2.40
2018-12-08T04:17:31.465Z,3.33
2018-12-08T04:19:59.003Z,2.47
2018-12-08T04:22:26.578Z,3.37
2018-12-08T04:24:54.317Z,3.67
2018-12-08T04:27:22.095Z,2.53
2018-12-08T04:29:49.931Z,2.90
2018-12-08T04:32:17.622Z,3.80
2018-12-08T04:34:45.191Z,3.70
2018-12-08T04:37:12.750Z,2.97
2018-12-08T04:39:40.291Z,3.10
2018-12-08T04:42:07.958Z,2.77
2018-12-08T04:44:35.668Z,3.03
2018-12-08T04:47:03.210Z,3.07
2018-12-08T04:49:30.747Z,2.93
2018-12-08T04:51:58.525Z,3.27
2018-12-08T04:54:26.509Z,3.73
2018-12-08T04:56:54.194Z,3.33
2018-12-08T04:59:21.923Z,2.67
2018-12-08T05:01:49.487Z,3.93
2018-12-08T05:04:17.029Z,4.50
2018-12-08T05:06:44.589Z,4.27
2018-12-08T05:09:12.160Z,3.37
2018-12-08T05:11:39.754Z,3.00
2018-12-08T05:14:07.354Z,3.27
2018-12-08T05:16:34.897Z,3.30
2018-12-08T05:19:02.468Z,3.20
2018-12-08T05:21:30.117Z,3.50
2018-12-08T05:23:57.823Z,3.73
2018-12-08T05:26:25.566Z,3.40
2018-12-08T05:28:53.284Z,4.07
2018-12-08T05:31:21.069Z,3.20
2018-12-08T05:33:48.670Z,3.60
2018-12-08T05:36:16.272Z,2.97
2018-12-08T05:41:18.378Z,2.87
2018-12-08T05:43:46.094Z,3.67
2018-12-08T05:46:13.922Z,3.53
2018-12-08T05:48:41.594Z,3.17
2018-12-08T05:51:09.135Z,3.00
2018-12-08T05:53:36.671Z,3.13
2018-12-08T05:56:04.281Z,2.93
2018-12-08T05:58:31.799Z,3.30
2018-12-08T06:00:59.378Z,3.07
2018-12-08T06:03:27.020Z,3.10
2018-12-08T06:05:54.789Z,3.00
2018-12-08T06:08:22.565Z,2.70
2018-12-08T06:10:50.137Z,3.07
2018-12-08T06:13:17.708Z,3.83
2018-12-08T06:15:45.314Z,3.30
2018-12-08T06:18:12.852Z,3.70
2018-12-08T06:20:40.466Z,4.30
2018-12-08T06:23:08.047Z,4.17
2018-12-08T06:25:37.784Z,4.40
2018-12-08T06:28:14.280Z,3.60
2018-12-08T06:30:41.938Z,3.43
2018-12-08T06:33:09.529Z,3.00
2018-12-08T06:35:37.086Z,4.50
2018-12-08T06:38:04.677Z,4.27
2018-12-08T06:40:32.309Z,3.10
2018-12-08T06:42:59.839Z,3.10
2018-12-08T06:45:27.427Z,3.27
2018-12-08T06:47:55.023Z,3.40
2018-12-08T06:50:22.629Z,3.40
2018-12-08T06:52:50.411Z,3.27
2018-12-08T06:55:18.188Z,3.43
2018-12-08T06:57:45.936Z,3.03
2018-12-08T07:00:13.717Z,3.87
2018-12-08T07:02:41.286Z,4.43
2018-12-08T07:05:08.802Z,3.97
2018-12-08T07:07:36.516Z,3.87
2018-12-08T07:10:04.118Z,3.43
2018-12-08T07:12:31.678Z,3.40
2018-12-08T07:14:59.281Z,3.63
2018-12-08T07:17:26.868Z,4.00
2018-12-08T07:19:54.894Z,3.70
2018-12-08T07:22:22.805Z,3.57
2018-12-08T07:24:50.585Z,3.47
2018-12-08T07:27:18.269Z,2.70
2018-12-08T07:29:45.925Z,4.37
2018-12-08T07:32:13.477Z,3.57
2018-12-08T07:34:41.099Z,4.23
2018-12-08T07:37:08.684Z,2.90
2018-12-08T07:39:36.262Z,3.47
2018-12-08T07:42:03.785Z,4.80
2018-12-08T07:44:31.580Z,3.73
2018-12-08T07:46:59.423Z,3.53
2018-12-08T07:49:27.250Z,3.53
2018-12-08T07:51:54.991Z,3.97
2018-12-08T07:54:22.563Z,3.87
2018-12-08T07:56:50.126Z,2.93
2018-12-08T07:59:17.722Z,3.37
2018-12-08T08:01:45.280Z,4.90
2018-12-08T08:04:12.854Z,4.30
2018-12-08T08:06:40.506Z,3.57
2018-12-08T08:09:08.112Z,3.27
2018-12-08T08:11:35.758Z,4.03
2018-12-08T08:14:03.342Z,4.03
2018-12-08T08:16:30.974Z,2.93
2018-12-08T08:18:58.602Z,5.03
2018-12-08T08:21:26.367Z,3.57
2018-12-08T08:23:53.953Z,2.57
2018-12-08T08:26:21.537Z,4.00
2018-12-08T08:28:49.074Z,5.03
2018-12-08T08:31:16.671Z,3.57
2018-12-08T08:33:44.258Z,3.23
2018-12-08T08:36:11.873Z,2.60
2018-12-08T08:38:39.466Z,5.37
2018-12-08T08:41:07.046Z,2.50
2018-12-08T08:43:34.823Z,3.30
2018-12-08T08:46:02.585Z,5.63
2018-12-08T08:48:30.378Z,3.20
2018-12-08T08:50:58.314Z,2.63
2018-12-08T08:53:30.667Z,2.67
2018-12-08T08:55:58.357Z,4.10
2018-12-08T08:58:25.973Z,3.63
2018-12-08T09:00:53.581Z,2.70
2018-12-08T09:03:21.142Z,4.57
2018-12-08T09:05:48.830Z,3.80
2018-12-08T09:08:16.397Z,3.13
2018-12-08T09:10:43.972Z,3.10
2018-12-08T09:13:11.686Z,3.30
2018-12-08T09:15:39.386Z,2.97
2018-12-08T09:18:07.178Z,3.37
2018-12-08T09:20:34.858Z,2.23
2018-12-08T09:23:02.440Z,2.80
2018-12-08T09:25:30.285Z,3.83
2018-12-08T09:27:57.871Z,2.87
2018-12-08T09:30:25.526Z,5.03
2018-12-08T09:32:53.129Z,3.23
2018-12-08T09:35:20.983Z,3.03
2018-12-08T09:37:48.651Z,3.17
2018-12-08T09:40:16.466Z,3.13
2018-12-08T09:42:44.092Z,3.20
2018-12-08T09:45:11.670Z,3.27
2018-12-08T09:47:39.233Z,3.27
2018-12-08T09:50:07.209Z,3.13
2018-12-08T09:52:34.823Z,4.17
2018-12-08T09:55:02.992Z,2.70
2018-12-08T09:57:31.026Z,2.70
2018-12-08T09:59:58.878Z,3.53
2018-12-08T10:02:26.453Z,3.17
2018-12-08T10:04:54.026Z,2.70
2018-12-08T10:07:21.641Z,2.83
2018-12-08T10:09:49.254Z,2.77
2018-12-08T10:12:16.874Z,2.60
2018-12-08T10:14:44.688Z,3.13
2018-12-08T10:17:12.506Z,3.07
2018-12-08T10:19:40.269Z,3.17
2018-12-08T10:22:07.905Z,2.77
2018-12-08T10:24:35.463Z,2.73
2018-12-08T10:27:03.058Z,3.73
2018-12-08T10:29:30.673Z,2.93
2018-12-08T10:31:58.231Z,2.77
2018-12-08T10:34:25.807Z,3.33
2018-12-08T10:36:53.366Z,2.87
2018-12-08T10:39:20.989Z,2.67
2018-12-08T10:41:48.878Z,2.77
2018-12-08T10:44:16.696Z,3.47
2018-12-08T10:46:44.488Z,3.07
2018-12-08T10:49:12.054Z,3.37
2018-12-08T10:51:39.568Z,3.20
2018-12-08T10:54:07.141Z,2.90
2018-12-08T10:56:34.717Z,3.50
2018-12-08T10:59:02.339Z,3.10
2018-12-08T11:01:35.805Z,3.90
2018-12-08T11:04:03.626Z,3.27
2018-12-08T11:06:31.269Z,3.47
2018-12-08T11:08:59.014Z,2.87
2018-12-08T11:11:26.832Z,3.53
2018-12-08T11:13:54.375Z,3.60
2018-12-08T11:16:21.953Z,2.83
2018-12-08T11:18:49.510Z,2.83
2018-12-08T11:21:17.066Z,3.27
2018-12-08T11:23:44.657Z,2.80
2018-12-08T11:26:12.201Z,2.23
2018-12-08T11:28:39.770Z,2.40
2018-12-08T11:31:07.310Z,2.67
2018-12-08T11:33:34.853Z,2.30
2018-12-08T11:36:02.394Z,2.70
2018-12-08T11:38:30.149Z,2.33
2018-12-08T11:40:57.969Z,3.43
2018-12-08T11:43:25.866Z,3.50
2018-12-08T11:45:53.662Z,2.33
2018-12-08T11:48:21.432Z,2.33
2018-12-08T11:50:48.996Z,3.10
2018-12-08T11:53:16.555Z,2.77
2018-12-08T11:55:44.090Z,2.83
2018-12-08T11:58:11.649Z,2.20
2018-12-08T12:00:39.234Z,2.73
2018-12-08T12:03:06.807Z,2.17
2018-12-08T12:05:34.332Z,2.23
2018-12-08T12:08:01.878Z,3.07
2018-12-08T12:10:29.450Z,2.13
2018-12-08T12:12:57.172Z,2.20
2018-12-08T12:15:25.051Z,2.40
2018-12-08T12:17:52.888Z,2.30
2018-12-08T12:20:20.725Z,2.40
2018-12-08T12:22:48.531Z,2.53
2018-12-08T12:25:16.423Z,2.50
2018-12-08T12:27:44.407Z,2.10
2018-12-08T12:30:11.998Z,2.57
2018-12-08T12:32:39.538Z,2.20
2018-12-08T12:35:07.084Z,2.30
2018-12-08T12:37:34.733Z,2.97
2018-12-08T12:40:02.333Z,2.50
2018-12-08T12:42:30.070Z,2.20
2018-12-08T12:44:57.947Z,2.20
2018-12-08T12:47:25.843Z,1.83
2018-12-08T12:49:53.687Z,2.07
2018-12-08T12:52:21.366Z,1.97
2018-12-08T12:54:48.936Z,2.60
2018-12-08T12:57:16.463Z,2.30
2018-12-08T12:59:44.042Z,2.23
2018-12-08T13:02:11.622Z,2.33
2018-12-08T13:04:39.175Z,2.23
2018-12-08T13:07:06.721Z,2.10
2018-12-08T13:09:34.283Z,2.30
2018-12-08T13:12:02.165Z,2.40
2018-12-08T13:14:30.003Z,1.90
2018-12-08T13:16:57.783Z,2.40
2018-12-08T13:19:25.581Z,2.83
2018-12-08T13:21:53.389Z,2.50
2018-12-08T13:24:21.126Z,2.10
2018-12-08T13:26:48.653Z,2.03
2018-12-08T13:29:16.234Z,2.70
2018-12-08T13:31:43.801Z,4.17
2018-12-08T13:34:22.436Z,2.20
2018-12-08T13:36:50.038Z,3.60
2018-12-08T13:39:17.662Z,2.80
2018-12-08T13:41:45.206Z,3.03
2018-12-08T13:44:53.078Z,2.63
2018-12-08T13:47:20.623Z,3.00
2018-12-08T13:49:48.186Z,3.30
2018-12-08T13:52:15.761Z,3.03
2018-12-08T13:54:48.242Z,3.23
2018-12-08T13:57:15.819Z,3.50
2018-12-08T13:59:51.182Z,3.03
2018-12-08T14:02:19.002Z,2.77
2018-12-08T14:04:47.217Z,3.67
2018-12-08T14:07:14.761Z,4.53
2018-12-08T14:09:42.319Z,3.73
2018-12-08T14:12:09.855Z,3.67
2018-12-08T14:14:37.431Z,4.27
2018-12-08T14:17:05.125Z,3.77
2018-12-08T14:19:32.675Z,3.57
2018-12-08T14:22:00.411Z,4.00
2018-12-08T14:24:28.367Z,3.47
2018-12-08T14:26:56.038Z,4.13
2018-12-08T14:29:23.821Z,3.80
2018-12-08T14:31:51.762Z,4.57
2018-12-08T14:34:19.421Z,3.83
2018-12-08T14:36:47.085Z,5.83
2018-12-08T14:39:14.642Z,4.10
2018-12-08T14:41:42.202Z,3.57
2018-12-08T14:44:09.774Z,4.90
2018-12-08T14:46:37.354Z,4.73
2018-12-08T14:49:04.918Z,4.63
2018-12-08T14:51:32.649Z,3.83
2018-12-08T14:54:00.625Z,5.07
2018-12-08T14:56:28.189Z,4.80
2018-12-08T14:58:55.894Z,5.50
2018-12-08T15:01:24.653Z,4.93
2018-12-08T15:03:52.230Z,4.83
2018-12-08T15:06:19.838Z,3.60
2018-12-08T15:08:47.381Z,4.80
2018-12-08T15:11:15.082Z,3.37
2018-12-08T15:13:42.863Z,3.97
2018-12-08T15:16:10.661Z,4.93
2018-12-08T15:18:38.581Z,4.43
2018-12-08T15:21:06.192Z,4.20
2018-12-08T15:23:33.702Z,3.97
2018-12-08T15:26:01.237Z,4.40
2018-12-08T15:28:28.793Z,4.03
2018-12-08T15:30:56.346Z,4.30
2018-12-08T15:33:23.942Z,4.23
2018-12-08T15:35:51.485Z,4.20
2018-12-08T15:38:19.026Z,3.93
2018-12-08T15:40:46.602Z,4.13
2018-12-08T15:43:14.367Z,3.70
2018-12-08T15:45:42.169Z,3.57
2018-12-08T15:48:10.062Z,3.93
2018-12-08T15:50:37.886Z,3.57
2018-12-08T15:53:05.536Z,3.57
2018-12-08T15:55:33.190Z,3.27
2018-12-08T15:58:00.785Z,3.27
2018-12-08T16:00:28.376Z,3.43
2018-12-08T17:11:10.742Z,4.23
2018-12-08T17:13:38.357Z,3.77
2018-12-08T17:16:05.922Z,3.17
2018-12-08T17:18:33.496Z,4.20
2018-12-08T17:21:01.380Z,2.87
2018-12-08T17:23:29.279Z,3.30
2018-12-08T17:25:57.035Z,3.43
2018-12-08T17:28:24.793Z,3.13
2018-12-08T17:30:52.396Z,3.60
2018-12-08T17:33:19.976Z,3.00
2018-12-08T17:35:47.531Z,2.50
2018-12-08T17:38:15.082Z,2.10
2018-12-08T17:40:42.718Z,1.80
2018-12-08T17:43:10.239Z,1.80
2018-12-08T17:45:37.925Z,2.43
2018-12-08T17:48:05.700Z,2.63
2018-12-08T17:50:33.431Z,2.63
2018-12-08T17:53:01.219Z,2.60
2018-12-08T17:55:29.122Z,2.70
2018-12-08T17:57:56.895Z,1.80
2018-12-08T18:00:32.451Z,2.03
2018-12-08T18:03:07.311Z,1.90
2018-12-08T18:05:34.940Z,2.13
2018-12-08T18:08:02.512Z,2.10
2018-12-08T18:10:30.158Z,2.67
2018-12-08T18:12:57.736Z,2.37
2018-12-08T18:15:25.397Z,2.50
2018-12-08T18:17:53.250Z,2.80
2018-12-08T18:20:21.069Z,2.50
2018-12-08T18:22:48.917Z,2.47
2018-12-08T18:25:16.626Z,2.27
2018-12-08T18:27:44.346Z,2.60
2018-12-08T18:30:12.017Z,2.83
2018-12-08T18:32:39.652Z,2.30
2018-12-08T18:35:07.284Z,2.23
2018-12-08T18:37:34.926Z,1.93
2018-12-08T18:40:02.525Z,1.80
2018-12-08T18:42:30.118Z,1.67
2018-12-08T18:44:57.693Z,1.80
2018-12-08T18:47:27.247Z,2.13
2018-12-08T18:49:54.951Z,1.77
2018-12-08T18:52:22.610Z,1.67
2018-12-08T18:54:50.231Z,1.60
2018-12-08T18:57:17.817Z,1.50
2018-12-08T18:59:45.414Z,1.30
2018-12-08T19:02:12.978Z,1.27
2018-12-08T19:04:40.625Z,1.07
2018-12-08T19:07:08.222Z,2.80
2018-12-08T19:09:35.821Z,1.40
2018-12-08T19:12:03.747Z,1.13
2018-12-08T19:14:31.616Z,1.30
2018-12-08T19:16:59.434Z,1.47
2018-12-08T19:19:27.322Z,1.60
2018-12-08T19:21:54.903Z,1.73
2018-12-08T19:24:22.498Z,2.30
2018-12-08T19:26:50.106Z,2.63
2018-12-08T19:29:17.760Z,3.23
2018-12-08T19:31:48.967Z,3.10
2018-12-08T19:34:16.528Z,3.37
2018-12-08T19:36:44.143Z,3.57
2018-12-08T19:39:11.713Z,3.63
2018-12-08T19:41:39.724Z,4.70
2018-12-08T19:44:07.510Z,4.13
2018-12-08T19:46:35.295Z,3.00
2018-12-08T19:49:03.214Z,3.20
2018-12-08T19:51:30.774Z,3.60
2018-12-08T19:53:58.320Z,3.90
2018-12-08T19:56:25.934Z,3.03
2018-12-08T19:58:53.508Z,5.13
2018-12-08T20:01:21.057Z,3.90
2018-12-08T20:03:48.633Z,4.37
2018-12-08T20:06:16.224Z,2.80
2018-12-08T20:08:43.901Z,3.50
2018-12-08T20:11:11.550Z,3.50
2018-12-08T20:13:39.213Z,3.77
2018-12-08T20:16:07.094Z,3.60
2018-12-08T20:18:34.648Z,3.43
2018-12-08T20:21:02.205Z,4.13
2018-12-08T20:23:29.950Z,4.10
2018-12-08T20:25:57.519Z,4.10
2018-12-08T20:28:25.078Z,4.00
2018-12-08T20:30:52.726Z,4.80
2018-12-08T20:33:20.478Z,3.70
2018-12-08T20:35:48.838Z,3.23
2018-12-08T20:38:16.409Z,4.23
2018-12-08T20:40:43.977Z,4.10
2018-12-08T20:43:11.588Z,4.37
2018-12-08T20:45:40.417Z,4.60
2018-12-08T20:48:08.297Z,4.47
2018-12-08T20:50:36.162Z,3.87
2018-12-08T20:53:04.106Z,5.33
2018-12-08T20:55:31.698Z,4.47
2018-12-08T20:57:59.302Z,5.07
2018-12-08T21:00:26.936Z,4.40
2018-12-08T21:02:54.537Z,4.33
2018-12-08T21:05:22.141Z,4.40
2018-12-08T21:07:49.667Z,6.33
2018-12-08T21:10:17.465Z,5.03
2018-12-08T21:12:45.310Z,3.90
2018-12-08T21:15:13.015Z,2.90
2018-12-08T21:17:40.846Z,3.50
2018-12-08T21:20:08.484Z,2.27
2018-12-08T21:22:36.133Z,1.60
2018-12-08T21:25:04.142Z,2.00
2018-12-08T21:27:31.757Z,2.93
2018-12-08T21:29:59.366Z,4.60
2018-12-08T21:32:27.124Z,5.17
2018-12-08T21:34:54.878Z,4.30
2018-12-08T21:37:22.953Z,5.73
2018-12-08T21:39:50.558Z,6.17
2018-12-08T21:42:18.145Z,6.33
2018-12-08T21:44:45.731Z,5.87
2018-12-08T21:47:13.310Z,6.70
2018-12-08T21:49:40.856Z,4.90
2018-12-08T21:52:08.717Z,6.53
2018-12-08T21:54:36.498Z,6.43
2018-12-08T21:57:04.154Z,5.57
2018-12-08T21:59:31.849Z,5.97
2018-12-08T22:01:59.478Z,5.20
2018-12-08T22:04:27.111Z,6.73
2018-12-08T22:06:54.705Z,7.03
2018-12-08T22:09:22.339Z,4.80
2018-12-08T22:11:49.885Z,4.47
2018-12-08T22:14:17.510Z,6.70
2018-12-08T22:16:45.036Z,5.53
2018-12-08T22:19:12.858Z,5.07
2018-12-08T22:21:40.494Z,5.50
2018-12-08T22:24:08.189Z,3.93
2018-12-08T22:26:35.914Z,4.10
2018-12-08T22:29:03.586Z,5.03
2018-12-08T22:31:31.178Z,5.20
2018-12-08T22:33:58.746Z,6.40
2018-12-08T22:36:26.320Z,6.87
2018-12-08T22:38:53.983Z,4.40
2018-12-08T22:41:21.527Z,4.00
2018-12-08T22:43:49.270Z,4.33
2018-12-08T22:46:16.997Z,5.43
2018-12-08T22:48:44.761Z,5.57
2018-12-08T22:51:12.409Z,4.83
2018-12-08T22:53:40.031Z,4.83
2018-12-08T22:56:07.607Z,4.30
2018-12-08T22:58:35.168Z,4.20
2018-12-08T23:01:02.796Z,4.77
2018-12-08T23:03:30.544Z,4.37
2018-12-08T23:05:58.091Z,4.03
2018-12-08T23:08:25.649Z,4.10
2018-12-08T23:10:53.413Z,4.43
2018-12-08T23:13:21.450Z,3.70
2018-12-08T23:15:49.217Z,4.00
2018-12-08T23:18:17.009Z,3.93
2018-12-08T23:20:44.594Z,3.80
2018-12-08T23:23:12.158Z,5.27
2018-12-08T23:25:39.754Z,4.23
2018-12-08T23:28:07.310Z,4.67
2018-12-08T23:30:34.873Z,4.17
2018-12-08T23:33:02.475Z,3.80
2018-12-08T23:35:29.993Z,5.60
2018-12-08T23:37:57.567Z,3.40
2018-12-08T23:40:25.293Z,3.27
2018-12-08T23:42:53.164Z,3.40
2018-12-08T23:45:20.951Z,3.20
2018-12-08T23:47:56.448Z,3.70
2018-12-08T23:50:23.986Z,2.67
2018-12-08T23:52:51.803Z,3.87
2018-12-08T23:55:19.537Z,3.40
2018-12-08T23:57:47.290Z,5.00
